Pfafftown, North Carolina
Current Conditions -  °F | °C
As of 6:54 PM on Thursday 18 Dec 2014 (Local Time) from KINT Reporting Station
Overcast Overcast  
Wind Chill: 45°   Ceiling: 6000
Heat Index: 45°   Visibility: 10mi
Dew Point: 23°   Wind: 3mph
Humidity: 42%   Direction: 10°N
Pressure: 30.1"   Gusts: NA
Location:  36.17°N, 80.38°W
Report Text: KINT 182354Z 01003KT 10SM OVC060 07/M05 A3010 RMK AO2 SLP197 T00721050 10089 20067 51007
Loading
Personal Weather Stations






























Interactive Weather Map New forecast layout! Learn more

10-Day Weather Forecast

Advertisements
Track Severe Weather on mobile